Tortoise & Hare Turkey Trot

back to results

Nov. 12, 2006

Tortoise & Hare Turkey Trot
Ann Arbor, MI
Results provided by GAULT RACE MANAGEMENT


******************* MALE OVERALL WINNERS ***************************
Place O'All No. Name City Ag Ten Pace
===== ===== ===== ====================== ================= == ======= =====
1 1 926 Ian Forsyth Ann Arbor 34 31:42 5:07

******************* FEMALE OVERALL WINNERS ***************************
Place O'All No. Name City Ag Ten Pace
===== ===== ===== ====================== ================= == ======= =====
1 19 885 Lisa Veneziano Fenton 42 38:48 6:15


******************** MALE MASTERS WINNER *******************************
Place O'All No. Name City Ag Ten Pace
===== ===== ===== ====================== ================= == ======= =====
1 4 854 Pat Lencioni Ann Arbor 41 33:04 5:20


******************** FEMALE MASTERS WINNER *******************************
Place O'All No. Name City Ag Ten Pace
===== ===== ===== ====================== ================= == ======= =====
1 48 238 Laurie Kimsal West Bloomfield 41 43:20 6:59


******************** MALE GRAND MASTERS WINNER *******************************
Place O'All No. Name City Ag Ten Pace
===== ===== ===== ====================== ================= == ======= =====
1 25 870 David Crary Ann Arbor 55 40:34 6:32


******************** FEMALE GRAND MASTERS WINNER *******************************
Place O'All No. Name City Ag Ten Pace
===== ===== ===== ====================== ================= == ======= =====
1 131 576 Lexanne Creitz Ann Arbor 52 49:27 7:58

MALE AGE GROUP: 1 - 10
Place O'All No. Name City Ag Ten Pace
===== ===== ===== ====================== ================= == ======= =====

FEMALE AGE GROUP: 1 - 10
Place O'All No. Name City Ag Ten Pace
===== ===== ===== ====================== ================= == ======= =====
1 219 152 Lizzy Fichera Ann Arbor 10 55:29 8:56
2 221 285 Katie Matton Ann Arbor 10 55:32 8:57

MALE AGE GROUP: 11 - 14
Place O'All No. Name City Ag Ten Pace
===== ===== ===== ====================== ================= == ======= =====
1 37 500 Nathan Wells Davison 14 41:52 6:45
2 59 959 Dylan Shearer Milan 13 43:53 7:04

FEMALE AGE GROUP: 11 - 14
Place O'All No. Name City Ag Ten Pace
===== ===== ===== ====================== ================= == ======= =====
1 69 961 Amelia Horton Milan 13 44:49 7:13
2 210 861 Katie Witten Swartz Creek 14 54:48 8:50
3 216 954 Logan Engle Ann Arbor 13 55:06 8:53
4 218 150 Jenny Fichera Ann Arbor 11 55:29 8:56
5 241 279 Larissa Marcich Pinckney 12 57:16 9:14
.

MALE AGE GROUP: 15 - 19
Place O'All No. Name City Ag Ten Pace
===== ===== ===== ====================== ================= == ======= =====
1 3 13 Aaron Bachman Saline 19 32:56 5:19
2 12 78 Brendan Cleary Clawson 15 36:58 5:58
3 15 171 Travis Gere Caro 17 37:24 6:02
4 21 975 Josha Ross Eaton Rapids 15 39:51 6:25
5 36 168 Jared Gentz Grass Lake 15 41:37 6:42
6 41 955 Shelby Engle Ann Arbor 16 42:11 6:48
7 78 351 Michael Pienta Ann Arbor 16 45:43 7:22
8 94 290 Colin McCorkle Ann Arbor 19 47:15 7:37
9 97 930 Gethin Angell Oxford 16 47:30 7:39
10 106 114 Josh Degutis Ann Arbor 15 48:06 7:45

FEMALE AGE GROUP: 15 - 19
Place O'All No. Name City Ag Ten Pace
===== ===== ===== ====================== ================= == ======= =====
1 52 809 Kate Calhoun Lambertville 15 43:37 7:02
2 60 956 Lindsay Brown Findlay 18 44:00 7:05
3 256 327 Laura Newcomb Ann Arbor 19 58:33 9:26
4 279 348 Kristi Penner Ann Arbor 19 1:01:07 9:51

MALE AGE GROUP: 20 - 24
Place O'All No. Name City Ag Ten Pace
===== ===== ===== ====================== ================= == ======= =====
1 5 969 Mark Wehrman Pinckney 20 34:17 5:32
2 14 339 Kyle Ormsby Ann Arbor 22 37:19 6:01
3 30 510 Nicholas Wilkinson Ann Arbor 21 40:53 6:35
4 46 519 Alex Wurden Ann Arbor 24 42:56 6:55
5 185 344 John Parke Howell 22 53:03 8:33
6 220 375 Joel Richard Ann Arbor 21 55:32 8:57
7 242 434 Michael Sonn Ann Arbor 24 57:18 9:14
8 249 866 Zacharyt Mabee Ann Arbor 22 57:51 9:19
9 303 851 Caleb Christner Canton 20 1:05:28 10:33

FEMALE AGE GROUP: 20 - 24
Place O'All No. Name City Ag Ten Pace
===== ===== ===== ====================== ================= == ======= =====
1 53 167 Gretchen Gehrke Ann Arbor 23 43:43 7:03
2 73 297 Anna Milanowski Ann Arbor 20 44:58 7:15
3 82 166 Carrie Gasidlo Carleton 22 46:00 7:25
4 99 292 Tami McDunn Ann Arbor 22 47:37 7:40
5 127 840 Jen Kullgrn Ann Arbor 21 49:09 7:55
6 135 439 Sandra Sponseller Canton 21 49:33 7:59
7 142 310 Carrie Moore Ypsilanti 23 50:03 8:04
8 151 498 Elizabeth Weiss Oak Park 22 50:49 8:11
9 156 118 Kelsye Deppe Ypsilanti 21 51:02 8:13
10 163 520 Lindsay Yakel Ann Arbor 21 51:25 8:17
11 167 564 Emilie Tullis Ann Arbor 22 51:33 8:18
12 190 944 Andrea Smith Ann Arbor 24 53:31 8:37
13 192 974 Kelly Lynch Troy 24 53:34 8:38
14 194 343 Ye Eun Park Ann Arbor 22 54:01 8:42
15 207 399 Gabrielle Scherzer Ann Arbor 22 54:44 8:49
16 209 515 Julie Wolf Ann Arbor 21 54:45 8:49
17 234 477 Catherine Vaughn Ann Arbor 21 56:19 9:04
18 254 490 Lauren Ward Ann Arbor 20 58:21 9:24
19 267 504 Nina White Ann Arbor 23 1:00:17 9:43
20 272 260 Michelle Lee Ann Arbor 22 1:00:43 9:47
21 282 473 Jacqueline Van Baal Troy 24 1:02:10 10:01
22 325 161 Kristin French Howell 23 1:14:17 11:58
.

MALE AGE GROUP: 25 - 29
Place O'All No. Name City Ag Ten Pace
===== ===== ===== ====================== ================= == ======= =====
1 2 864 Greg Feucht Ann Arbor 28 31:43 5:07
2 6 936 Albert Pinsonneault Cincinnati 26 34:48 5:37
3 22 273 Douglas MacLean Ann Arbor 26 39:56 6:26
4 29 888 Kevin Correa Ann Arbor 25 40:49 6:35
5 32 867 Fernando Ayala Ann Arbor 27 41:11 6:38
6 38 119 Christopher Dettore Ann Arbor 28 42:02 6:46
7 40 130 Mathew Duane Okemos 25 42:08 6:47
8 43 539 Josh Rosenfeld Ann Arbor 29 42:34 6:52
9 72 869 Ilorian\ Block Ann Arbor 25 44:55 7:14
10 77 2 Francisco Aguilar Ann Arbor 25 45:41 7:22
11 79 394 Abishek Sampath Ann Arbor 26 45:45 7:22
12 83 432 Corey Snyder Ann Arbor 28 46:05 7:26
13 114 401 Benjamin Schmidt Ypsilanti 25 48:26 7:48
14 118 967 Justin Williams Ann Arbor 25 48:35 7:50
15 171 535 David Osta Ann Arbor 29 52:01 8:23
16 174 216 Jeremy Hufton Ann Arbor 27 52:09 8:24
17 203 59 Jake Carlin Ann Arbor 27 54:32 8:47
18 222 303 Scott Miller Ann Arbor 29 55:33 8:57
19 230 242 Joseph Klecha Novi 27 56:00 9:01
20 232 892 Steve Reid Waterford 25 56:16 9:04
21 243 98 Michael Cuffle Jackson 29 57:23 9:15
22 273 981 Dietrich Koch Ann Arbor 27 1:00:45 9:47
23 277 347 Jim Penner Ann Arbor 26 1:01:02 9:50
24 297 833 Matt Brewer Belleville 27 1:04:40 10:25
25 320 480 Michael Vertrees Northville 27 1:10:55 11:25
.

FEMALE AGE GROUP: 25 - 29
Place O'All No. Name City Ag Ten Pace
===== ===== ===== ====================== ================= == ======= =====
1 20 32 Elizabeth Ben-Ishai Ann Arbor 25 39:26 6:21
2 47 237 Meredith Kimball Ann Arbor 25 43:16 6:58
3 65 331 Rebecca Northway Ann Arbor 27 44:35 7:11
4 70 225 Stephanie Johnson Manchester 25 44:51 7:14
5 75 44 Rachel Bricklin Ypsilanti 25 45:11 7:17
6 80 835 Sarah Shipley Canton 28 45:47 7:23
7 105 249 Marie Komanecky Ann Arbor 26 48:06 7:45
8 115 435 Courtney Spence Ann Arbor 26 48:29 7:49
9 122 556 Erin Farbar Ann Arbor 25 48:56 7:53
10 125 873 Julie Ziegler Ann Arbor 26 49:07 7:55
11 136 384 Carla Rondeau Ferndale 26 49:38 8:00
12 140 875 Asia Renning Milan 25 49:52 8:02
13 144 334 Siobhan O'Connor Ann Arbor 26 50:06 8:04
14 145 77 Kelly Clay Ann Arbor 26 50:13 8:05
15 147 36 Suzanne Bessette Ann Arbor 29 50:20 8:07
16 148 433 Kendra Snyder Ann Arbor 27 50:23 8:07
17 164 492 Jill Weader Ann Arbor 26 51:29 8:18
18 168 443 Leah Stempky Saline 27 51:35 8:19
19 169 38 Sara Boblick Ann Arbor 29 52:01 8:23
20 170 536 Amanda Osta Ann Arbor 29 52:01 8:23
21 173 33 Maren Bennett Ann Arbor 26 52:08 8:24
22 181 393 Jackie Saling Plymouth 27 52:38 8:29
23 182 268 Erica Lowell Royal Oak 28 52:43 8:30
24 195 538 Christine Freeman Ann Arbor 27 54:05 8:43
25 196 104 Jen Cunliffe Ann Arbor 27 54:05 8:43
26 205 328 Anna Nikolaeva Olson Ann Arbor 27 54:36 8:48
27 214 455 Katie Talik Ann Arbor 27 55:06 8:53
28 223 410 Sharon Segvich Ann Arbor 27 55:33 8:57
29 227 408 Blake Schweitzer Chicago 27 55:57 9:01
30 235 176 Laura Good Ann Arbor 25 56:24 9:05
31 238 302 Rasa Miller Salin 28 56:45 9:08
32 244 208 Elika Hoffmann Ann Arbor 28 57:34 9:16
33 247 197 Kristin Hardymon Canton 28 57:48 9:19
34 261 349 Lauren Peterson Ann Arbor 27 59:14 9:33
35 265 568 Sara Parent Ann Arbor 29 1:00:00 9:40
36 269 506 Nickie Wiggins Ann Arbor 29 1:00:29 9:45
37 281 239 Sara Kingsley Port Huron 29 1:01:20 9:53
38 287 57 Kimberly Caporosso Pinckney 25 1:02:54 10:08
39 288 545 Rachael Noggle Ann Arbor 28 1:03:11 10:11
40 295 115 Kathryn Dekas Ann Arbor 28 1:04:38 10:25
41 296 966 Cynthia MacHy Ann Arbor 28 1:04:39 10:25
42 306 429 Michelle Smith Manchester 29 1:06:17 10:41
43 310 68 Linnea Chervenak Ann Arbor 27 1:07:02 10:48
44 319 567 Michelle Kramer Ann Arbor 28 1:10:52 11:25
45 328 577 Kristine Tripp Ann Arbor 26 1:14:27 11:59
46 332 269 Becky Luana Cass City 29 1:18:01 12:34
.

MALE AGE GROUP: 30 - 34
Place O'All No. Name City Ag Ten Pace
===== ===== ===== ====================== ================= == ======= =====
1 7 502 Matthew West Ypsilanti 31 35:43 5:45
2 8 51 Timothy Budzyn Ann Arbor 30 35:50 5:47
3 9 541 Edward McGovern Ypsilanti 31 35:52 5:47
4 10 958 Chris MacHniak Howell 31 35:55 5:47
5 31 400 Adam Schmidt Champaign 31 41:04 6:37
6 33 265 Matthew Lewis Ann Arbor 30 41:15 6:39
7 35 964 Chris Coleman Ann Arbor 34 41:33 6:42
8 50 181 Matthew Gregory San Francisco 30 43:29 7:00
9 64 188 Jeff Guyton Ypsilanti 33 44:30 7:10
10 67 89 Mark Corcoran Ann Arbor 33 44:39 7:12
11 87 182 Terence Groening Ann Arbor 33 46:36 7:31
12 91 859 Rajiv Fatel Birmingham 34 47:10 7:36
13 92 185 Drrpak Gupta Saline 34 47:10 7:36
14 109 499 Charlie Wells Davison 34 48:11 7:46
15 123 464 Craig Throne Ida 32 49:00 7:54
16 143 868 Dennis Rupert Ypsilanti 33 50:05 8:04
17 180 283 Rob Marshall Plymouth 34 52:34 8:28
18 228 479 Jason Vertrees South Lyon 33 55:58 9:01
19 229 511 Craig Willey Livonia 32 55:59 9:01
20 263 579 Peter Arbuckle Ann Arbor 30 59:30 9:35

FEMALE AGE GROUP: 30 - 34
Place O'All No. Name City Ag Ten Pace
===== ===== ===== ====================== ================= == ======= =====
1 98 39 Terren Bonkowski Howell 30 47:34 7:40
2 112 491 Gina Warnke Oak Harbor, Oh 33 48:21 7:47
3 159 884 Lyle Siobhan Ann Arbor 30 51:07 8:14
4 178 889 Jackie Malcolm Ann Arbor 34 52:32 8:28
5 187 471 Becky Turner Chelsea 30 53:11 8:34
6 198 390 Corey Ryder Ann Arbor 34 54:09 8:43
7 237 881 Shadia Zayed Westland 30 56:41 9:08
8 252 380 Mary Riegle Ferndale 34 58:16 9:23
9 258 235 Sanaz Kiesbye Ann Arbor 32 58:43 9:28
10 264 338 Kara O'Reilly Brownstown 30 59:36 9:36
11 291 895 Alyssa McKeithen Sarasota 33 1:03:36 10:15
12 292 30 Christine Benbow Tipton 34 1:03:50 10:17
13 298 67 Mary Chelune Ann Arbor 31 1:04:54 10:27
14 311 521 Emilie Yost Centerline 32 1:07:41 10:54
15 331 358 Jaime Pruett Cass City 34 1:18:00 12:34
16 334 11 Emily Avers Ann Arbor 33 1:46:36 17:10
.

MALE AGE GROUP: 35 - 39
Place O'All No. Name City Ag Ten Pace
===== ===== ===== ====================== ================= == ======= =====
1 11 41 Brian Brady Big Rapids 39 36:34 5:54
2 18 397 Jeff Sandula Gregory 36 38:45 6:15
3 49 71 Bob Chunn Ypsilanti 36 43:29 7:00
4 56 877 Jeff Tenniswood Troy 38 43:46 7:03
5 66 952 Brian Engle Ann Arbor 38 44:39 7:12
6 86 172 Joseph E. Ginis Ann Arbor 39 46:30 7:30
7 93 40 Paul Boyer Howell 36 47:11 7:36
8 101 63 Jim Carroll Redford 38 47:48 7:42
9 102 146 Brent Feasel Pinckney 36 47:49 7:42
10 119 48 Bryan Bruckman Dexter 35 48:36 7:50
11 133 946 Chris Weiss Ann Arbor 35 49:29 7:58
12 141 215 Ian Hubert Ann Arbor 37 50:00 8:03
13 154 860 Jason Scott 36 50:54 8:12
14 165 887 David Cesarini Ann Arbor 39 51:32 8:18
15 166 125 Roger Domokos Port Clinton 37 51:32 8:18
16 179 323 Kevin Nash Monroe 39 52:33 8:28
17 193 972 David Reich Royal Oak 36 53:51 8:41
18 204 882 Kevin Cleary Ann Arbor 36 54:36 8:48
19 206 454 Luke Takahashi Farmington Hills 37 54:38 8:48
20 217 367 David Read Ypsilanti 36 55:26 8:56
21 225 878 Kevin Pike Clinton 35 55:52 9:00

FEMALE AGE GROUP: 35 - 39
Place O'All No. Name City Ag Ten Pace
===== ===== ===== ====================== ================= == ======= =====
1 42 872 Jennifer Backus White Lake 36 42:29 6:51
2 61 189 Lilian Hadel Ann Arbor 39 44:11 7:07
3 68 555 Nancy Damm Ann Arbor 39 44:42 7:12
4 88 495 Leeanne Weinreich Gregory 35 46:58 7:34
5 89 58 Nancy Carbajo South Lyon 36 47:00 7:34
6 103 422 Elizabeth Skochelak Saline 39 47:56 7:43
7 128 220 Mary Johanson Royal Oak 36 49:21 7:57
8 129 412 Lesa Semon Brighton 36 49:23 7:57
9 132 973 Mary Gallagher Ann Arbor 37 49:29 7:58
10 157 883 Maria Sposita Milford 37 51:03 8:13
11 158 27 K Bedigian Novi 36 51:03 8:13
12 161 980 Lisa Cesarini Ann Arbor 38 51:08 8:14
13 172 891 Annette Reyes Ann Arbor 35 52:06 8:24
14 183 467 Kristin Tomey Ann Arbor 37 52:54 8:31
15 239 151 Jodi Fichera Ann Arbor 38 57:03 9:11
16 253 19 Madonna Ball Dearborn Heights 36 58:16 9:23
17 260 147 Charlene Fell Ann Arbor 37 58:55 9:29
18 262 352 Shelly Pike Clinton 39 59:26 9:34
19 278 314 Kristine Mucher Ypsilanti 35 1:01:06 9:50
20 283 546 Heidi Haite Ann Arbor 37 1:02:10 10:01
21 286 14 Jenna Bacolor Ypsilanti 35 1:02:25 10:03
22 289 282 Elizabeth Marshall Plymouth 35 1:03:19 10:12
23 302 368 Courtney Reddy Ann Arbor 36 1:05:22 10:32
24 307 250 Kristine Komives Ann Arbor 35 1:06:22 10:41
25 309 228 Laura June Brighton 35 1:06:36 10:44
.

MALE AGE GROUP: 40 - 44
Place O'All No. Name City Ag Ten Pace
===== ===== ===== ====================== ================= == ======= =====
1 16 453 Ben Szporluk Cleveland 42 37:27 6:02
2 17 886 Jay Owens Fenton 44 37:43 6:05
3 23 855 David Levan Ann Arbor 40 40:17 6:29
4 26 977 Scott Betzoldt Dexter 43 40:43 6:34
5 27 170 David Gerdes Ann Arbor 42 40:43 6:34
6 34 963 Eric Guenther Northville 44 41:15 6:39
7 57 229 George Kacic Ann Arbor 43 43:52 7:04
8 58 960 Paul Smith Milan 42 43:53 7:04
9 63 377 William Richardson Grass Lake 40 44:29 7:10
10 76 816 Dave Sevon Dearborn Heights 42 45:32 7:20
11 95 414 Bob Shammas Dexter 40 47:26 7:39
12 96 442 Kiesbye Stefan Ann Arbor 40 47:30 7:39
13 107 113 Bob Degutis Ann Arbor 42 48:07 7:45
14 120 241 Patrick Klavon Dexter 44 48:48 7:52
15 130 976 Carl Koerschner Ann Arbor 43 49:23 7:57
16 138 186 Ercument Bora Guven Royal Oak 40 49:45 8:01
17 162 50 Jason Bryce Livonia 40 51:13 8:15
18 175 389 James Ryan Ann Arbor 43 52:11 8:24
19 188 256 John Labrie Superior Township 40 53:16 8:35
20 268 22 Michael Barr Ann Arbor 41 1:00:24 9:44
21 276 153 Dirk Fischbach Saline 44 1:01:01 9:50
22 308 823 Jeff Bohy New Hudson 41 1:06:29 10:43
23 317 862 Doug Witten Swartz Creek 44 1:09:27 11:11

FEMALE AGE GROUP: 40 - 44
Place O'All No. Name City Ag Ten Pace
===== ===== ===== ====================== ================= == ======= =====
1 55 857 Carol Westphal Detroit 41 43:46 7:03
2 84 562 Katherine Gillman Whitmore Lake 40 46:05 7:26
3 100 382 Joan Rivington Ann Arbor 40 47:45 7:42
4 113 108 Jo Darlington Ann Arbor 40 48:26 7:48
5 191 293 Marykay McEachin Novi 41 53:31 8:37
6 208 360 Martha Quinn Canton 42 54:44 8:49
7 212 143 Lorenda Faist Pleasant Lake 44 54:59 8:52
8 213 589 Charlotte Rozich Tecumseh 40 55:05 8:52
9 224 286 Linda Matton Ann Arbor 43 55:45 8:59
10 231 112 Arlene Degutis Ann Arbor 42 56:06 9:02
11 246 533 Mary Weigelin Gregory 42 57:41 9:18
12 266 65 Cherie Chang Ypsilanti 41 1:00:11 9:42
13 271 517 Lisa Wozniak Ypsilanti 42 1:00:37 9:46
14 275 227 Regina Judd Ann Arbor 44 1:00:57 9:49
15 284 561 Renee Oliver Dexter 42 1:02:11 10:01
16 285 829 Debbie Pizzo Tipton 42 1:02:11 10:01
17 300 54 Katherine Callaghan Jackson 40 1:05:11 10:30
18 301 807 Leslie Beemer Jackson 40 1:05:14 10:30
19 305 55 Deborah Callan Plymouth 41 1:05:47 10:36
20 313 295 Sue McMahon Whitmore Lake 40 1:08:25 11:01
21 314 135 Sobczak Ellyce Ann Arbor 42 1:08:51 11:05
22 321 970 Judy Thams Gross Pt Frms 41 1:12:20 11:39
23 324 92 Sue Corrion Chesterfield 41 1:14:08 11:56
24 329 822 Gerri Yarmak Walled Lake 40 1:17:16 12:27
.

MALE AGE GROUP: 45 - 49
Place O'All No. Name City Ag Ten Pace
===== ===== ===== ====================== ================= == ======= =====
1 13 880 Roger Lara Grand Blanc 48 37:03 5:58
2 24 309 Timothy Mooney Toledo 46 40:24 6:31
3 44 978 Michael Wendorf Ann Arbor 48 42:39 6:52
4 54 139 Eric Fahlgren Canton 49 43:43 7:03
5 90 156 Robert Florka Ann Arbor 49 47:03 7:35
6 111 288 Richard McCarter Whitmore Lake 48 48:18 7:47
7 117 211 Nicholas Howson Ann Arbor 45 48:33 7:49
8 121 493 Jon Webb Hubbard Lake 46 48:56 7:53
9 139 148 Robert Fenerty San Jose 45 49:51 8:02
10 146 431 Scott Smith Fremont 48 50:19 8:06
11 149 979 Thomas Sionkowski Ferndale 46 50:34 8:09
12 150 590 Richard Mayernik Pinckney 49 50:41 8:10
13 200 430 Rod Smith Ann Arbor 47 54:18 8:45
14 211 593 Bruce Geffen Ann Arbor 45 54:53 8:50
15 248 149 Chris Fichera Ann Arbor 46 57:50 9:19
16 257 319 Ed Nadler Ann Arbor 49 58:38 9:27
17 270 253 Marvin Krislov Ann Arbor 46 1:00:36 9:46
18 293 392 Luis Salem Royal Oak 48 1:04:00 10:19
19 299 858 Yves Nugent Farmington Hills 46 1:05:07 10:29

FEMALE AGE GROUP: 45 - 49
Place O'All No. Name City Ag Ten Pace
===== ===== ===== ====================== ================= == ======= =====
1 62 184 Wanda Gunderson Whitmore Lake 48 44:15 7:08
2 74 879 Ruth Lara Grand Blanc 45 45:10 7:17
3 124 325 Denise Neely Dexter 46 49:02 7:54
4 155 169 Judith Gentz Grass Lake 48 51:02 8:13
5 199 929 Debbie Angell Oxford 45 54:11 8:44
6 215 592 Donna Krol Garden City 47 55:06 8:53
7 226 266 Debbie Liang Grosse Pointe 48 55:54 9:00
8 245 494 Sarah Webb Hubbard Lake 45 57:36 9:17
9 274 557 Lori Reece Ann Arbor 45 1:00:57 9:49
10 326 160 Karen French Howell 45 1:14:18 11:58
11 327 345 Tracy Parke Howell 49 1:14:18 11:58

MALE AGE GROUP: 50 - 54
Place O'All No. Name City Ag Ten Pace
===== ===== ===== ====================== ================= == ======= =====
1 28 586 Barry Siff Boulder, Co 51 40:43 6:34
2 39 968 Jim McCabe Dearborn 51 42:03 6:47
3 71 356 Aaron Pratt Saline 52 44:53 7:14
4 104 278 Steve Manville Whitmore Lake 50 47:57 7:44
5 116 423 Ivan Skripnik Howell 51 48:29 7:49
6 152 547 Tom Kirvan Saline 53 50:52 8:12
7 160 523 Fritz Yunck Ann Arbor 53 51:07 8:14
8 177 563 Steven Smith Mount Pleasant 53 52:24 8:26
9 186 222 James Johnson Trenton 51 53:05 8:33
10 197 841 Jeff Barnett Ann Arbor 51 54:09 8:43
11 250 497 Steve Weisenbach Novi 50 58:07 9:22
12 294 865 Paul Werner Plymouth 50 1:04:01 10:19
13 315 87 Len Constantine Chesterfield 53 1:09:11 11:09
14 316 35 William Berk Plymouth 54 1:09:11 11:09
15 323 159 Scott Freeman Grosse Pointe Woo 54 1:14:08 11:56
.

FEMALE AGE GROUP: 50 - 54
Place O'All No. Name City Ag Ten Pace
===== ===== ===== ====================== ================= == ======= =====
1 189 252 Becky Krick Ann Arbor 51 53:23 8:36
2 233 544 Emily Twanmo Ann Arbor 51 56:18 9:04
3 259 28 Kathryn Beebe Brighton 53 58:52 9:29
4 280 406 Katharene Schoof Dexter 53 1:01:18 9:52
5 290 49 Shelley Bruder Dexter 52 1:03:25 10:13
6 333 263 Karen Levin Ann Arbor 54 1:24:35 13:37

MALE AGE GROUP: 55 - 59
Place O'All No. Name City Ag Ten Pace
===== ===== ===== ====================== ================= == ======= =====
1 45 516 Chris Wolfe Ann Arbor 58 42:43 6:53
2 51 154 David Fisher Ann Arbor 56 43:35 7:01
3 81 876 Robert Larson 55 46:00 7:25
4 110 217 David Huiskens Bay City 56 48:15 7:46
5 126 73 Thomas Claflin Brighton 58 49:09 7:55
6 137 828 Robert Weber Ann Arbor 58 49:44 8:01
7 153 116 Mark Delbrugge Southgate 55 50:52 8:12
8 201 158 Jerry Fouchey Ann Arbor 56 54:19 8:45
9 251 874 Mike Perkins Ann Arbor 55 58:12 9:23
10 255 445 Micheal Stevens Linden 58 58:30 9:25
11 322 971 John Knill 58 1:12:21 11:39

FEMALE AGE GROUP: 55 - 59
Place O'All No. Name City Ag Ten Pace
===== ===== ===== ====================== ================= == ======= =====
1 202 127 Elke Dozauer Ann Arbor 56 54:22 8:46
2 236 85 Janis Conlin Ann Arbor 56 56:25 9:05
3 318 558 Kathy Nohr Dexter 55 1:10:47 11:24

MALE AGE GROUP: 60 - 64
Place O'All No. Name City Ag Ten Pace
===== ===== ===== ====================== ================= == ======= =====
1 85 307 Jerome Mittman Northville 62 46:09 7:26
2 134 56 James Caporali Farmington Hills 64 49:31 7:59
3 176 37 Dave Blough Dexter 60 52:20 8:26
4 184 819 William Gosline Toledo 62 53:02 8:33

FEMALE AGE GROUP: 60 - 64
Place O'All No. Name City Ag Ten Pace
===== ===== ===== ====================== ================= == ======= =====
1 304 66 Doris Chelune Saline 62 1:05:46 10:36
2 330 950 Adele Sowinski Ann Arbor 60 1:17:46 12:32

MALE AGE GROUP: 65 - 69
Place O'All No. Name City Ag Ten Pace
===== ===== ===== ====================== ================= == ======= =====
1 108 827 Ernest Caviani 65 48:11 7:46

FEMALE AGE GROUP: 65 - 69
Place O'All No. Name City Ag Ten Pace
===== ===== ===== ====================== ================= == ======= =====
1 240 852 Janet Wallen Flushing 65 57:13 9:13

MALE AGE GROUP: 70 - 74
Place O'All No. Name City Ag Ten Pace
===== ===== ===== ====================== ================= == ======= =====
1 312 128 Wolfgang Dozauer Ann Arbor 73 1:08:09 10:59
.

FEMALE AGE GROUP: 70 - 74
Place O'All No. Name City Ag Ten Pace
===== ===== ===== ====================== ================= == ======= =====

MALE AGE GROUP: 75 - 99
Place O'All No. Name City Ag Ten Pace
===== ===== ===== ====================== ================= == ======= =====

FEMALE AGE GROUP: 75 - 99
Place O'All No. Name City Ag Ten Pace
===== ===== ===== ====================== ================= == ======= =====

MALE CLYDESDALE AGE GROUP
Place O'All No. Name City Ten Pace
===== ===== ===== ====================== ================= ======= =====
1 31 400 Adam Schmidt Champaign 41:04 6:37
2 44 978 Michael Wendorf Ann Arbor 42:39 6:52
3 49 71 Bob Chunn Ypsilanti 43:29 7:00
4 76 816 Dave Sevon Dearborn Heights 45:32 7:20
5 86 172 Joseph E. Ginis Ann Arbor 46:30 7:30
6 114 401 Benjamin Schmidt Ypsilanti 48:26 7:48
7 139 148 Robert Fenerty San Jose 49:51 8:02
8 166 125 Roger Domokos Port Clinton 51:32 8:18
9 179 323 Kevin Nash Monroe 52:33 8:28
10 217 367 David Read Ypsilanti 55:26 8:56
11 225 878 Kevin Pike Clinton 55:52 9:00
12 228 479 Jason Vertrees South Lyon 55:58 9:01
13 249 866 Zacharyt Mabee Ann Arbor 57:51 9:19
14 250 497 Steve Weisenbach Novi 58:07 9:22
15 294 865 Paul Werner Plymouth 1:04:01 10:19
16 308 823 Jeff Bohy New Hudson 1:06:29 10:43

FEMALE CLYDESDALE AGE GROUP
Place O'All No. Name City Ten Pace
===== ===== ===== ====================== ================= ======= =====
1 156 118 Kelsye Deppe Ypsilanti 51:02 8:13
2 300 54 Katherine Callaghan Jackson 1:05:11 10:30
3 301 807 Leslie Beemer Jackson 1:05:14 10:30
4 329 822 Gerri Yarmak Walled Lake 1:17:16 12:27
.




TEAM COMPETITION - 5K WOMEN
----------------------------------------------------------------------------


1. 14 Half Masters ( 21:44 1:26:55)
=============================================
1 2 184 Wanda Gunderson Whitmore Lake 21:21
2 3 924 Amy Steele Whitmore Lake 21:33
3 4 562 Katherine Gillman Whitmore Lake 21:35
4 5 812 Deborah Heslip Whitmore Lake 22:26
5 ( 6) 108 Jo Darlington Ann Arbor 23:06

2. 36 Michigan Triathlon ( 36:07 2:24:26)
=============================================
1 7 387 Erin Russ Milan 27:14
2 8 427 Hannah Smith Ann Arbor 33:58
3 10 416 Judy Sheldon Greenbush 37:23
4 11 299 Kathy Miller Berkley 45:51
5 ( 12) 388 Megan Russell Ann Arbor 45:51


----------------------------------------------------------------------------
TEAM COMPETITION - 5K MEN
----------------------------------------------------------------------------


1. 19 Michigan Running Club ( 16:29 1:22:25)
=============================================
1 1 580 Aaron Metler West Bloomfield 15:31
2 2 584 Ryan Boluyt Ann Arbor 15:57
3 3 583 David Metler West Bloomfield 16:27
4 4 582 Paul Johnson Ann Arbor 16:33
5 9 581 Derek Vermeulen West Bloomfield 17:57

2. 58 Stupendous 6 ( 18:31 1:32:35)
=============================================
1 6 551 David Cogswell Ann Arbor 16:58
2 8 553 Adam Kern Ann Arbor 17:55
3 11 530 Andres Sanz-Guerrero Ann Arbor 18:14
4 16 531 Ki Jones Ann Arbor 19:44
5 17 469 Aaron Trierweiler Ann Arbor 19:44
6 ( 25) 261 Matt Lerner Ann Arbor 24:13

3. 64 U of M Tri Club ( 18:59 1:34:53)
=============================================
1 7 117 John Depaul Saline 17:44
2 12 525 Jeremy Zeigler Ann Arbor 19:02
3 13 983 Austin Gibbons Ann Arbor 19:08
4 14 1 Jonathan Abel_millman Ann Arbor 19:11
5 18 588 Brad Stulberg Ann Arbor 19:48

4. 78 Encore Athletics ( 20:24 1:41:56)
=============================================
1 5 575 Matt Screbek Ann Arbor 16:56
2 10 18 Scott Baker Ann Arbor 17:59
3 19 47 Michael Brower Ypsilanti 21:43
4 21 304 Michael Milliman Ann Arbor 22:30
5 23 247 Jason Koeller Ann Arbor 22:48

5. 108 Cougars ( 22:44 1:53:36)
=============================================
1 15 537 Pelham Barron Ann Arbor 19:36
2 20 534 Stephen Toner Ann Arbor 22:02
3 22 529 Eric Jensen Ann Arbor 22:35
4 24 528 Andrew Barber Ann Arbor 23:18
5 27 527 Ian Hecker Ann Arbor 26:05



******************* FEMALE OVERALL WINNERS ***************************
Place O'All No. Name City Ag Women5 Pace
===== ===== ===== ====================== ================= == ======= =====
1 1 943 Natalie Webb 16 18:55 6:06


******************** FEMALE MASTERS WINNER *******************************
Place O'All No. Name City Ag Women5 Pace
===== ===== ===== ====================== ================= == ======= =====
1 8 813 Theresa Stanko Ann Arbor 45 19:58 6:26


******************** FEMALE GRAND MASTERS WINNER *******************************
Place O'All No. Name City Ag Women5 Pace
===== ===== ===== ====================== ================= == ======= =====
1 13 826 Sue Parks Ypsilanti 50 20:16 6:32

FEMALE AGE GROUP: 1 - 10
Place O'All No. Name City Ag Women5 Pace
===== ===== ===== ====================== ================= == ======= =====
1 71 474 Anita Vander Meulen Ann Arbor 10 25:26 8:12
2 83 53 Marissa Butler Dexter 10 26:16 8:28
3 96 843 Amanda George Davison 9 26:47 8:38
4 187 818 Catherine Stone Pinckney 7 31:51 10:15
5 226 123 Elizabeth Dokas Ann Arbor 10 37:29 12:05
6 240 574 Kate Preissner Ann Arbor 9 45:41 14:43

FEMALE AGE GROUP: 11 - 14
Place O'All No. Name City Ag Women5 Pace
===== ===== ===== ====================== ================= == ======= =====
1 7 811 Kelsey Calhoun Lambertville 12 19:56 6:25
2 16 805 Sunney Mahalak Goodrich 14 20:55 6:44
3 30 939 Ana Naiki Ann Arbor 14 21:48 7:02
4 47 444 Amelia Stenson Saline 14 23:39 7:37
5 56 99 Alyssa Cummings Ann Arbor 11 24:00 7:44
6 57 300 Megan Miller Ann Arbor 14 24:12 7:48
7 84 821 Molly Weber Saline 14 26:22 8:30
8 89 294 Megan McIntosh Milan 11 26:29 8:32
9 111 387 Erin Russ Milan 14 27:14 8:47
10 138 836 Meghan Clarke Plymouth 14 28:52 9:18
11 154 849 Jessa Gargan Ann Arbor 11 29:37 9:33
12 163 24 Audrey Bauer Ann Arbor 13 30:10 9:43
13 164 298 Emilly Miller Ann Arbor 11 30:13 9:44
14 184 552 Elizabeth Bauer Ann Arbor 11 31:45 10:14
15 195 947 Claire Hardy White Lake 12 32:54 10:36
16 204 427 Hannah Smith Ann Arbor 13 33:58 10:56
17 221 591 Hannah Degutis Ann Arbor 13 37:07 11:57
18 257 318 Adina Nadler Ann Arbor 11 54:18 17:29
.

FEMALE AGE GROUP: 15 - 19
Place O'All No. Name City Ag Women5 Pace
===== ===== ===== ====================== ================= == ======= =====
1 4 949 Jacalyn Gross East Lansing 19 19:40 6:20
2 5 934 Carolyn Campbell Ann Arbor 16 19:47 6:22
3 6 806 Becky McCormack Canton 18 19:51 6:24
4 9 101 Lindsey Cummings Saline 16 20:04 6:28
5 10 554 Rebecca Hiemstra Ann Arbor 16 20:05 6:28
6 11 501 Rachael Wessel Wixom 16 20:06 6:29
7 12 122 Lindsay Doherty Wixom 16 20:15 6:32
8 15 594 Ashley Buxton Ann Arbor 15 20:25 6:35
9 20 507 Joy Wilke Chelsea 17 21:22 6:53
10 22 110 Anna Dean Ann Arbor 15 21:29 6:55
11 32 137 Marian Espinosa Ann Arbor 19 22:09 7:08
12 40 595 Allison Reid Ann Arbor 15 22:42 7:19
13 46 810 Errinn Calhoun Lambertville 16 23:32 7:35
14 48 6 Amanda Allison Ann Arbor 19 23:42 7:38
15 52 201 Jennifer Hebert Ann Arbor 19 23:48 7:40
16 54 496 Katie Weishaar Plymouth 15 23:57 7:43
17 60 192 Claire Hampton Dexter 19 24:15 7:49
18 63 802 Marita Inglehart Ann Arbor 15 24:37 7:56
19 67 472 Amanda Ulrich Ann Arbor 18 25:05 8:05
20 101 248 Katie Koelzer Ann Arbor 19 26:54 8:40
21 122 928 Bethan Angell 15 27:50 8:58
22 178 458 Anne Thiel Chelsea 17 31:14 10:04
23 223 846 Chloe Mathews Ann Arbor 17 37:17 12:00
24 224 340 Morgan Owen-Cruise Ann Arbor 16 37:18 12:01
25 258 321 Rachel Nadler Ann Arbor 18 54:18 17:29

FEMALE AGE GROUP: 20 - 24
Place O'All No. Name City Ag Women5 Pace
===== ===== ===== ====================== ================= == ======= =====
1 2 202 Kelly Higgins Corunna 20 19:29 6:17
2 3 232 Jamie Kerstetter Ann Arbor 24 19:36 6:19
3 25 246 Karla Knudson Ann Arbor 23 21:34 6:57
4 29 140 Mandy Fahrer Ypsilanti 22 21:42 7:00
5 34 292 Tami McDunn Ann Arbor 22 22:17 7:11
6 36 297 Anna Milanowski Ann Arbor 20 22:19 7:11
7 39 136 Heidi Ernst Ann Arbor 23 22:37 7:17
8 43 376 Alison Richardson Ann Arbor 24 23:16 7:30
9 44 944 Andrea Smith Ann Arbor 24 23:18 7:30
10 65 134 Catherine Ellingson Ann Arbor 24 25:02 8:04
11 69 587 Tamara Stevenson Saline 21 25:09 8:06
12 75 424 Veronica Slayton Dundee 24 25:31 8:13
13 79 86 Jess Constable Ann Arbor 22 25:51 8:20
14 81 209 Jessica Holland Lansing 23 26:12 8:27
15 85 17 Jennifer Baker Ann Arbor 22 26:22 8:30
16 86 399 Gabrielle Scherzer Ann Arbor 22 26:25 8:31
17 87 515 Julie Wolf Ann Arbor 21 26:25 8:31
18 108 76 Laura Claus Fraser 21 27:04 8:43
19 126 193 Emily Hampton Dexter 23 28:11 9:05
20 129 8 Allison Amerman Saline 22 28:20 9:08
21 142 177 Sara Graham Ypsilanti 24 29:00 9:21
22 149 850 Ashley Ludwig Saline 23 29:32 9:31
23 243 388 Megan Russell Ann Arbor 22 45:51 14:46
24 244 301 Michelle Miller Warren 22 45:51 14:46
25 248 834 Sadie Brewer Belleville 23 46:23 14:56
.

FEMALE AGE GROUP: 25 - 29
Place O'All No. Name City Ag Women5 Pace
===== ===== ===== ====================== ================= == ======= =====
1 18 835 Sarah Shipley Canton 28 21:13 6:50
2 28 131 Alison Duvall Ann Arbor 28 21:37 6:58
3 41 486 Amanda Walbridge Waterford 27 22:43 7:19
4 49 330 Julie Norman Ann Arbor 27 23:42 7:38
5 51 36 Suzanne Bessette Ann Arbor 29 23:47 7:40
6 61 155 Brandie Fitzsimmons Belleville 26 24:16 7:49
7 72 373 Emily Reyna Ann Arbor 25 25:27 8:12
8 73 483 Caitlin Vuocolo Ypsilanti 28 25:28 8:12
9 90 935 Laura Roberts Ann Arbor 27 26:34 8:34
10 91 568 Sara Parent Ann Arbor 29 26:36 8:34
11 94 569 Anne McGee Ann Arbor 29 26:43 8:36
12 98 455 Katie Talik Ann Arbor 27 26:48 8:38
13 100 565 Lydia Josephs Ann Arbor 25 26:51 8:39
14 103 239 Sara Kingsley Port Huron 29 26:54 8:40
15 105 208 Elika Hoffmann Ann Arbor 28 26:56 8:41
16 107 538 Christine Freeman Ann Arbor 27 27:04 8:43
17 109 104 Jen Cunliffe Ann Arbor 27 27:04 8:43
18 119 418 Leanne Shultz Ann Arbor 25 27:40 8:55
19 128 962 Sara Blechinger Redford 28 28:13 9:05
20 140 70 Shan-Mei Chiu Ypsilanti 26 28:58 9:20
21 143 287 Amanda McAllister Chelsea 27 29:05 9:22
22 147 476 Gretchen Vasquez Romulus 29 29:28 9:30
23 150 96 Sara Crooks Wayne 26 29:32 9:31
24 151 567 Michelle Kramer Ann Arbor 28 29:32 9:31
25 158 485 Catherine Wagner Brighton 28 29:45 9:35
26 172 12 Cristina Bacelis-Bush Ypsilanti 28 30:58 9:58
27 173 94 Carrie Crabtree Ypsilanti 27 31:01 10:00
28 177 487 Kara Walker Novi 25 31:14 10:04
29 182 391 Emily Saalfeld Ann Arbor 28 31:27 10:08
30 191 264 Lisa Lewis Ann Arbor 29 32:33 10:29
31 192 7 Dara Alpert Ann Arbor 27 32:33 10:29
32 193 223 Lorraine Johnson Ypsilanti 27 32:43 10:32
33 219 10 Tracy Artley Belleville 26 36:17 11:41
34 234 324 Sarah Nash Monroe 28 39:41 12:47
35 247 831 Heidi Morrison Ypsilanti 29 46:21 14:56
.

FEMALE AGE GROUP: 30 - 34
Place O'All No. Name City Ag Women5 Pace
===== ===== ===== ====================== ================= == ======= =====
1 17 814 Lisa Oleksak Royal Oak 31 21:08 6:49
2 21 491 Gina Warnke Oak Harbor, Oh 33 21:26 6:55
3 35 179 Diana Green Ypsilanti 32 22:18 7:11
4 38 815 Kristen White Plymouth 33 22:31 7:15
5 58 459 Melissa Thiel Ann Arbor 31 24:13 7:48
6 59 244 Wendy Knape Tecumseh 32 24:14 7:49
7 64 259 Julie Lanzesira Monroe 30 24:44 7:58
8 66 549 Lakeya Jones Ann Arbor 31 25:04 8:05
9 68 365 Jennifer Ray Pinckney 33 25:05 8:05
10 104 965 Jenny Barba Ann Arbor 30 26:55 8:40
11 115 338 Kara O'Reilly Brownstown 30 27:29 8:51
12 116 60 Frances Carlson Ann Arbor 34 27:30 8:52
13 121 316 Jody Mugele Chelsea 31 27:48 8:57
14 124 236 Sharon Kileny Ann Arbor 34 27:58 9:01
15 127 540 Katie Schuster Ann Arbor 33 28:13 9:05
16 137 957 Elaine MacHniak Howell 31 28:46 9:16
17 139 938 Sherri Schoenemann Plymouth 33 28:54 9:19
18 144 198 Amanda Hatfield South Lyon 34 29:15 9:25
19 146 844 Kimberly Dosey Chelsea 34 29:15 9:25
20 148 187 Elisa Guyton Ypsilanti 32 29:30 9:30
21 157 848 Michele Gargan Ann Arbor 31 29:44 9:35
22 161 396 Cara Sandula Gregory 31 30:01 9:40
23 186 449 Samantha Strayer Belleville 32 31:50 10:15
24 188 88 Charlott Corcoran Ann Arbor 34 31:53 10:16
25 196 425 Sarah Smalheer Chelsea 32 32:58 10:37
26 209 353 Kervel Pinard Ann Arbor 33 34:54 11:15
27 214 421 Audra Skaryd Ann Arbor 34 35:23 11:24
28 229 75 April Clark Okemos 34 38:13 12:19
29 230 341 Kathleen Owens Ann Arbor 32 38:18 12:20
30 233 93 Alison Cox Brighton 32 38:35 12:26
31 245 420 Marilee Silverstein Chicago 31 46:02 14:50
32 246 462 Danielle Thompson Linden 31 46:05 14:51
33 253 11 Emily Avers Ann Arbor 33 48:02 15:28
.

FEMALE AGE GROUP: 35 - 39
Place O'All No. Name City Ag Women5 Pace
===== ===== ===== ====================== ================= == ======= =====
1 23 937 Heather Charron Ann Arbor 39 21:31 6:56
2 24 924 Amy Steele Whitmore Lake 37 21:33 6:57
3 31 555 Nancy Damm Ann Arbor 39 21:50 7:02
4 33 61 Charlotte Carne Ann Arbor 35 22:12 7:09
5 37 812 Deborah Heslip Whitmore Lake 36 22:26 7:14
6 50 503 Jeni Whalen Brighton 35 23:46 7:39
7 70 524 Maria Zampierollo Ann Arbor 35 25:10 8:07
8 74 46 Lisa Brower Ypsilanti 39 25:30 8:13
9 77 226 Wendy Johnson Pinckney 36 25:47 8:18
10 93 546 Heidi Haite Ann Arbor 37 26:40 8:36
11 99 165 Christine Gallagher Whitmore Lake 38 26:49 8:38
12 102 147 Charlene Fell Ann Arbor 37 26:54 8:40
13 113 409 Lori Scott Pinckney 38 27:15 8:47
14 123 489 Kari Walworth Ann Arbor 35 27:52 8:59
15 130 81 Misiel Conlen Brighton 38 28:23 9:09
16 134 257 Kelly Labrie Superior Township 36 28:39 9:14
17 136 121 Amy Dittmar Ann Arbor 36 28:44 9:15
18 145 95 Pamela Crespi Canton 38 29:15 9:25
19 160 72 Yolaine Civil Ann Arbor 39 29:53 9:38
20 165 284 Susan Martin Ann Arbor 36 30:15 9:45
21 166 183 Anne Grose Brighton 36 30:24 9:47
22 171 468 Bonnie Torti Ann Arbor 37 30:47 9:55
23 179 824 Sharareh Zarei Farmington Hills 38 31:21 10:06
24 180 817 Charisse Haas Pinckney 36 31:22 10:06
25 181 164 Cindy Gabriel Ann Arbor 36 31:27 10:08
26 183 441 Kathy Stark Lakeland 35 31:44 10:13
27 197 951 Nanette Engle Armada 37 33:13 10:42
28 199 386 Lisa Repert Manchester 36 33:20 10:44
29 201 206 Eileen Hilliard Davisburg 37 33:25 10:46
30 202 446 Amy Stheiner Pinckney 35 33:37 10:50
31 203 83 Toni Conley Plymouth 39 33:47 10:53
32 210 456 Trauu Tamer Pinckney 38 34:55 11:15
33 213 138 Charlotte Ester Canton 38 35:09 11:19
34 216 27 K Bedigian Novi 36 35:44 11:31
35 217 84 Tracy Conley Fenton 36 35:56 11:34
36 220 4 Laurie Alexander Ann Arbor 35 36:19 11:42
37 227 124 Michelle Dokas Ann Arbor 38 37:31 12:05
38 238 578 Bridgette Kaul Ann Arbor 38 41:05 13:14
39 251 514 Tanya Williams Canton 39 47:57 15:27
.

FEMALE AGE GROUP: 40 - 44
Place O'All No. Name City Ag Women5 Pace
===== ===== ===== ====================== ================= == ======= =====
1 14 481 Christine Vincent Jackson 43 20:17 6:32
2 26 562 Katherine Gillman Whitmore Lake 40 21:35 6:57
3 27 29 Linda Bellinger Walled Lake 40 21:36 6:58
4 42 108 Jo Darlington Ann Arbor 40 23:06 7:27
5 62 34 Kumiko Berger Ann Arbor 43 24:30 7:54
6 76 143 Lorenda Faist Pleasant Lake 44 25:32 8:13
7 82 596 Janet Reid Ann Arbor 42 26:14 8:27
8 95 335 Terri Ogans Brighton 41 26:44 8:37
9 106 842 Vicki George Davison 42 27:01 8:42
10 110 839 Marybeth Sheehan Ann Arbor 41 27:14 8:46
11 117 64 Cynthia Carruthers Dexter 42 27:33 8:53
12 120 129 Tracey Drotos Ann Arbor 40 27:40 8:55
13 133 267 Mary Locey Ann Arbor 44 28:36 9:13
14 141 178 Maurine Grantham Dexter 42 28:59 9:20
15 152 457 Emiko Tawarada Ann Arbor 43 29:35 9:32
16 155 807 Leslie Beemer Jackson 40 29:41 9:34
17 156 69 Davoren Chick Okemos 41 29:42 9:34
18 167 54 Katherine Callaghan Jackson 40 30:27 9:49
19 169 428 Leslie Smith Ann Arbor 43 30:38 9:52
20 170 291 Lisa McDonnell Dexter 44 30:47 9:55
21 189 92 Sue Corrion Chesterfield 41 32:01 10:19
22 190 326 Jill Neugebauer Westland 43 32:28 10:28
23 205 837 Nancy Clarke Plymouth 41 34:18 11:03
24 206 26 Margot Beckerman Ann Arbor 41 34:25 11:05
25 207 332 Tana Nyhoff Saline 40 34:40 11:10
26 208 240 Patricia Klavon Dexter 41 34:43 11:11
27 222 112 Arlene Degutis Ann Arbor 42 37:07 11:57
28 232 174 Lori Glenn Fenton 41 38:23 12:22
29 241 571 Jo Ann Preissner Ann Arbor 42 45:49 14:45
30 249 940 Laura Lane Pinckney 41 47:09 15:11
31 250 941 Karen Backus 40 47:10 15:11

FEMALE AGE GROUP: 45 - 49
Place O'All No. Name City Ag Women5 Pace
===== ===== ===== ====================== ================= == ======= =====
1 19 184 Wanda Gunderson Whitmore Lake 48 21:21 6:53
2 45 233 Cindy Kezele Jackson 49 23:20 7:31
3 53 169 Judith Gentz Grass Lake 48 23:49 7:41
4 55 62 Carol Carnex Jackson 45 23:57 7:43
5 78 111 Lena Dean Ann Arbor 46 25:50 8:19
6 80 929 Debbie Angell Oxford 45 26:01 8:23
7 92 52 Cindy Butler Dexter 46 26:37 8:34
8 97 592 Donna Krol Garden City 47 26:47 8:38
9 132 16 Jane Baker Lansing 45 28:34 9:12
10 153 133 Julie Eibach Ann Arbor 46 29:36 9:32
11 159 932 Marie Muehlenbein Northville 48 29:46 9:35
12 175 460 Mary Thomas Ann Arbor 47 31:09 10:02
13 176 102 Maureen Cummings Saline 48 31:09 10:02
14 185 219 Sue Jackson Saline 48 31:48 10:15
15 198 847 Victoria Fahlgren Dexter 45 33:16 10:43
16 211 370 Jeri Rehberg Dearborn 48 34:56 11:15
17 215 207 Patricia Hodges Ann Arbor 45 35:35 11:28
18 218 801 Judy Splitt Ann Arbor 48 35:58 11:35
19 242 299 Kathy Miller Berkley 48 45:51 14:46
.

FEMALE AGE GROUP: 50 - 54
Place O'All No. Name City Ag Women5 Pace
===== ===== ===== ====================== ================= == ======= =====
1 88 194 Janet Hampton Dexter 54 26:27 8:31
2 118 361 Martha Quiroga Temperance 51 27:38 8:54
3 125 49 Shelley Bruder Dexter 52 28:01 9:02
4 131 832 Donna Smith Dexter 51 28:30 9:11
5 135 406 Katharene Schoof Dexter 53 28:41 9:14
6 162 927 Mary Meerrnik Ann Arbor 54 30:04 9:41
7 174 450 Carol Suarez Dearborn 52 31:06 10:01
8 194 488 Sheryl Walsh Novi 53 32:46 10:33
9 200 830 Maggie Everett Ann Arbor 50 33:22 10:45
10 212 933 Sandra Larson Northville 54 34:59 11:16
11 235 415 Ville Shapiro Fenton 52 40:25 13:01
12 237 263 Karen Levin Ann Arbor 54 40:40 13:06
13 252 230 Karen Kairys Ann Arbor 54 48:02 15:28
14 259 320 Eileen Nadler Ann Arbor 50 54:19 17:30
15 260 452 Janet Swarthout Caro 50 55:18 17:49

FEMALE AGE GROUP: 55 - 59
Place O'All No. Name City Ag Women5 Pace
===== ===== ===== ====================== ================= == ======= =====
1 112 447 Sue Stickel Ypsilanti 56 27:15 8:47
2 114 234 Linda Kidder Ann Arbor 57 27:27 8:51
3 225 416 Judy Sheldon Greenbush 58 37:23 12:02
4 228 218 Ann Jackson Ann Arbor 57 37:39 12:08
5 239 461 Billie Thompson Harrisville 55 41:23 13:20

FEMALE AGE GROUP: 60 - 64
Place O'All No. Name City Ag Women5 Pace
===== ===== ===== ====================== ================= == ======= =====
1 231 277 Janice Mann Lambertville 60 38:23 12:22
2 256 820 Janet Scherle Canton 61 53:50 17:20

FEMALE AGE GROUP: 65 - 69
Place O'All No. Name City Ag Women5 Pace
===== ===== ===== ====================== ================= == ======= =====
1 236 419 Lin Siebert Dexter 65 40:28 13:02
2 254 80 Beth Colaner-Kenney Ann Arbor 66 49:29 15:56

FEMALE AGE GROUP: 70 - 74
Place O'All No. Name City Ag Women5 Pace
===== ===== ===== ====================== ================= == ======= =====

FEMALE AGE GROUP: 75 - 99
Place O'All No. Name City Ag Women5 Pace
===== ===== ===== ====================== ================= == ======= =====

FEMALE CLYDESDALE AGE GROUP
Place O'All No. Name City Ag Women5 Pace
===== ===== ===== ====================== ================= == ======= =====
1 81 209 Jessica Holland Lansing 23 26:12 8:27
2 137 957 Elaine MacHniak Howell 31 28:46 9:16
3 155 807 Leslie Beemer Jackson 40 29:41 9:34
4 167 54 Katherine Callaghan Jackson 40 30:27 9:49
5 196 425 Sarah Smalheer Chelsea 32 32:58 10:37
6 229 75 April Clark Okemos 34 38:13 12:19
7 230 341 Kathleen Owens Ann Arbor 32 38:18 12:20
8 232 174 Lori Glenn Fenton 41 38:23 12:22
9 238 578 Bridgette Kaul Ann Arbor 38 41:05 13:14



******************* MALE OVERALL WINNERS ***************************
Place O'All No. Name City Ag Men5 Pace
===== ===== ===== ====================== ================= == ======= =====
1 1 926 Ian Forsyth Ann Arbor 34 15:23 4:58


******************** MALE MASTERS WINNER *******************************
Place O'All No. Name City Ag Men5 Pace
===== ===== ===== ====================== ================= == ======= =====
1 12 854 Pat Lencioni Ann Arbor 41 16:54 5:27


******************** MALE GRAND MASTERS WINNER *******************************
Place O'All No. Name City Ag Men5 Pace
===== ===== ===== ====================== ================= == ======= =====
1 46 532 Ed Baas Ann Arbor 53 19:40 6:20

MALE AGE GROUP: 1 - 10
Place O'All No. Name City Ag Men5 Pace
===== ===== ===== ====================== ================= == ======= =====
1 73 306 Matt Mitchell Dexter 10 21:34 6:57
2 79 585 Ryan Gauche Saline 10 21:52 7:03
3 118 953 Jacob Engle Ann Arbor 10 25:22 8:10
4 148 305 Danny Mitchell Dexter 9 28:25 9:09
5 149 132 Justin Eekhoff Dexter 7 28:29 9:11
6 155 91 Liam Corrigan Ann Arbor 9 29:23 9:28
7 170 475 Ryan Vander Meulen Ann Arbor 8 35:48 11:32

MALE AGE GROUP: 11 - 14
Place O'All No. Name City Ag Men5 Pace
===== ===== ===== ====================== ================= == ======= =====
1 22 553 Adam Kern Ann Arbor 14 17:55 5:46
2 44 537 Pelham Barron Ann Arbor 13 19:36 6:19
3 48 531 Ki Jones Ann Arbor 13 19:44 6:21
4 49 469 Aaron Trierweiler Ann Arbor 14 19:44 6:22
5 80 534 Stephen Toner Ann Arbor 12 22:02 7:06
6 88 529 Eric Jensen Ann Arbor 11 22:35 7:16
7 96 528 Andrew Barber Ann Arbor 12 23:18 7:30
8 110 572 Max Preissner Ann Arbor 14 24:28 7:53
9 113 803 Thomas Bawden 14 24:46 7:59
10 133 527 Ian Hecker Ann Arbor 11 26:05 8:24
11 146 82 Bradley Conley Plymouth 11 28:11 9:05
12 163 990 Thomas Dolce Ann Arbor 11 31:22 10:06
13 164 466 Patrick Thuren Ann Arbor 12 31:29 10:08
.

MALE AGE GROUP: 15 - 19
Place O'All No. Name City Ag Men5 Pace
===== ===== ===== ====================== ================= == ======= =====
1 2 173 Ian Girard Chelsea 18 15:23 4:58
2 6 417 Rob Shinouskis Lake Orion 18 15:44 5:04
3 8 359 Michael Quick Bloomfield Hills 18 16:06 5:11
4 9 583 David Metler West Bloomfield 19 16:27 5:18
5 13 575 Matt Screbek Ann Arbor 18 16:56 5:27
6 14 551 David Cogswell Ann Arbor 16 16:58 5:28
7 15 276 Jason Mahakian Farmington Hills 17 17:00 5:29
8 17 931 J.D. Wilcox 17 17:22 5:36
9 18 374 Jon Rhodes Farmington Hills 16 17:24 5:37
10 19 117 John Depaul Saline 19 17:44 5:43
11 21 404 Chris Schnaible Wixom 15 17:45 5:43
12 23 581 Derek Vermeulen West Bloomfield 19 17:57 5:47
13 26 78 Brendan Cleary Clawson 15 18:04 5:49
14 29 530 Andres Sanz-Guerrero Ann Arbor 15 18:14 5:53
15 30 898 Colin Naimy Warren 17 18:18 5:54
16 33 894 Mark Smith Manchester 15 18:30 5:58
17 34 508 Peter Wilke Chelsea 15 18:30 5:58
18 38 975 Josha Ross Eaton Rapids 15 19:06 6:09
19 41 1 Jonathan Abel_millman Ann Arbor 19 19:11 6:11
20 42 126 Vincent D'Onofrio Ann Arbor 17 19:17 6:13
21 75 405 Jack Schnaible Wixom 15 21:40 6:59
22 81 168 Jared Gentz Grass Lake 15 22:09 7:08
23 89 317 Gallen Murphy-Fahlgren Canton 17 22:43 7:19
24 91 103 Alex Cummings Saline 19 22:50 7:21
25 95 808 Andrew Moening Temperance 16 23:14 7:29
26 100 351 Michael Pienta Ann Arbor 16 23:31 7:35
27 106 261 Matt Lerner Ann Arbor 15 24:13 7:48
28 112 290 Colin McCorkle Ann Arbor 19 24:45 7:58
29 145 559 Jesse Schoof Dexter 15 28:05 9:03

MALE AGE GROUP: 20 - 24
Place O'All No. Name City Ag Men5 Pace
===== ===== ===== ====================== ================= == ======= =====
1 3 580 Aaron Metler West Bloomfield 22 15:31 5:00
2 5 920 Max Boldan East Lansing 20 15:39 5:03
3 7 584 Ryan Boluyt Ann Arbor 20 15:57 5:08
4 10 582 Paul Johnson Ann Arbor 20 16:33 5:20
5 11 969 Mark Wehrman Pinckney 20 16:38 5:22
6 27 987 Chris Nelson Ann Arbor 24 18:07 5:50
7 35 899 Michael Naimy East Lansing 22 18:30 5:58
8 39 983 Austin Gibbons Ann Arbor 21 19:08 6:10
9 40 470 Aistis Tumas Ann Arbor 23 19:09 6:10
10 51 588 Brad Stulberg Ann Arbor 20 19:48 6:23
11 60 369 Mathew Reed Fraser 22 20:18 6:33
12 63 510 Nicholas Wilkinson Ann Arbor 21 20:38 6:39
13 78 354 Charles Portman Ann Arbor 24 21:51 7:02
14 103 381 Ryan Rindler Portage 22 23:37 7:36
15 135 255 Daniel Kurdys Portage 21 26:11 8:26
16 147 205 John Hill Trenton 23 28:21 9:08
.

MALE AGE GROUP: 25 - 29
Place O'All No. Name City Ag Men5 Pace
===== ===== ===== ====================== ================= == ======= =====
1 4 864 Greg Feucht Ann Arbor 28 15:34 5:01
2 47 535 David Osta Ann Arbor 29 19:42 6:21
3 53 273 Douglas MacLean Ann Arbor 26 19:51 6:24
4 104 401 Benjamin Schmidt Ypsilanti 25 23:46 7:40
5 127 426 David Smith Ann Arbor 29 25:49 8:19
6 131 986 Jonathan Porta Howell 27 25:58 8:22
7 139 196 James Harbaugh Ann Arbor 25 27:17 8:47
8 153 98 Michael Cuffle Jackson 29 29:02 9:21
9 157 379 Kevin Riegle Manchester 25 29:41 9:34
10 158 296 Umesh Menon Ann Arbor 26 29:57 9:39
11 160 985 Lake McGuire Ann Arbor 29 30:54 9:57
12 168 893 Caleb Nobbe Brooklyn 26 33:24 10:46
13 172 378 Jason Riegle Waterford 29 36:15 11:41

MALE AGE GROUP: 30 - 34
Place O'All No. Name City Ag Men5 Pace
===== ===== ===== ====================== ================= == ======= =====
1 20 51 Timothy Budzyn Ann Arbor 30 17:45 5:43
2 24 18 Scott Baker Ann Arbor 33 17:59 5:48
3 25 541 Edward McGovern Ypsilanti 31 18:03 5:49
4 37 525 Jeremy Zeigler Ann Arbor 30 19:02 6:08
5 43 945 Patrick Suto 34 19:20 6:14
6 45 109 Michael Davis Dexter 33 19:37 6:19
7 58 270 Michael Lukela Ann Arbor 34 20:14 6:31
8 59 400 Adam Schmidt Champaign 31 20:16 6:32
9 67 964 Chris Coleman Ann Arbor 34 20:57 6:45
10 84 199 Frederick Hatfield South Lyon 33 22:20 7:12
11 85 440 Shawn Stallard Detroit 31 22:26 7:14
12 87 304 Michael Milliman Ann Arbor 33 22:30 7:15
13 94 336 Jamie Olson Ann Arbor 31 23:13 7:29
14 108 364 Bernie Ray Pinckney 32 24:24 7:52
15 109 573 Curt Preissner Chicago, Il 33 24:26 7:52
16 124 221 Peter Johanson Royal Oak 33 25:44 8:17
17 167 505 Brian Wietfeld Canton 34 32:22 10:25
18 169 274 Michael Madsen Royal Oak 34 33:55 10:56

MALE AGE GROUP: 35 - 39
Place O'All No. Name City Ag Men5 Pace
===== ===== ===== ====================== ================= == ======= =====
1 16 897 Paul Mayer Ann Arbor 39 17:06 5:31
2 28 41 Brian Brady Big Rapids 39 18:13 5:52
3 54 518 John Wright Novi 35 19:52 6:24
4 64 871 Kevin Backus White Lake 36 20:41 6:40
5 72 71 Bob Chunn Ypsilanti 36 21:33 6:57
6 74 15 Richard Bacolor Ypsilanti 36 21:36 6:58
7 90 247 Jason Koeller Ann Arbor 35 22:48 7:21
8 101 40 Paul Boyer Howell 36 23:31 7:35
9 107 224 Matt Johnson Pinckney 36 24:13 7:48
10 111 925 Mike Steele Whitmore Lake 36 24:33 7:54
11 121 989 Mike Blood Brighton 37 25:40 8:16
12 122 988 Toby Brzoznowski Ann Arbor 36 25:40 8:16
13 125 323 Kevin Nash Monroe 39 25:48 8:19
14 136 243 George Klinich Ann Arbor 39 26:25 8:31
15 143 125 Roger Domokos Port Clinton 37 27:37 8:54
16 154 367 David Read Ypsilanti 36 29:09 9:23
17 166 45 Keith Brothers Belleville 36 32:22 10:25
.

MALE AGE GROUP: 40 - 44
Place O'All No. Name City Ag Men5 Pace
===== ===== ===== ====================== ================= == ======= =====
1 31 845 Rob Benedict Ann Arbor 42 18:20 5:54
2 32 453 Ben Szporluk Cleveland 42 18:28 5:57
3 36 451 Eric Swager Chelsea 42 18:42 6:02
4 50 113 Bob Degutis Ann Arbor 42 19:44 6:22
5 56 170 David Gerdes Ann Arbor 42 20:01 6:27
6 61 346 Tyrone Patton Belleville 40 20:28 6:36
7 62 153 Dirk Fischbach Saline 44 20:37 6:39
8 71 275 Stephen Magee Ann Arbor 41 21:18 6:52
9 76 47 Michael Brower Ypsilanti 42 21:43 7:00
10 93 42 David Brammer Saline 43 23:06 7:27
11 97 20 Jeff Barber Superior Twp 40 23:20 7:31
12 98 948 Kevin Hardy White Lake 44 23:20 7:31
13 99 923 Bruce Sabuda Gregory 43 23:27 7:33
14 120 478 Ezio Vermiglio Tipton 40 25:39 8:16
15 128 438 Ed Sponseller Canton 42 25:50 8:20
16 130 43 Joe Breakey Ann Arbor 42 25:54 8:21
17 137 526 Michael Hecker Ann Arbor 43 26:31 8:33
18 138 838 Ian Jellis Roseville 40 26:53 8:40
19 141 570 Eric Preissner Ann Arbor 42 27:25 8:50
20 156 90 Brian Corrigan Ann Arbor 42 29:23 9:28
21 161 363 Peter Rathsack Britton 40 31:06 10:01
22 162 311 Tom Morren Canton 42 31:12 10:03
23 173 162 John Frohna Ann Arbor 42 36:20 11:42

MALE AGE GROUP: 45 - 49
Place O'All No. Name City Ag Men5 Pace
===== ===== ===== ====================== ================= == ======= =====
1 52 825 Brian Gesner Pinckney 48 19:51 6:24
2 55 245 Fred Knight Ann Arbor 48 19:54 6:25
3 66 139 Eric Fahlgren Canton 49 20:52 6:44
4 69 262 Chuck Lesch Ann Arbor 45 21:05 6:47
5 70 509 Rob Wilke Chelsea 49 21:15 6:51
6 77 437 James Spencer Ypsilanti 48 21:46 7:01
7 105 156 Robert Florka Ann Arbor 49 24:08 7:46
8 126 431 Scott Smith Fremont 48 25:48 8:19
9 129 593 Bruce Geffen Ann Arbor 45 25:53 8:20
10 134 100 Doug Cummings Saline 47 26:08 8:25
11 140 430 Rod Smith Ann Arbor 47 27:21 8:49
12 144 542 Randy Stowers Brighton 48 27:56 9:00
13 151 804 John Bawden 45 28:33 9:12

MALE AGE GROUP: 50 - 54
Place O'All No. Name City Ag Men5 Pace
===== ===== ===== ====================== ================= == ======= =====
1 57 586 Barry Siff Boulder, Co 51 20:10 6:30
2 65 548 Patrick Shields Ann Arbor 53 20:44 6:41
3 83 896 Al Gonano Wyandotte 54 22:19 7:11
4 92 356 Aaron Pratt Saline 52 22:57 7:24
5 114 919 Peter Creute Saline 52 24:47 7:59
6 119 900 Mark Bersuder Saline 52 25:33 8:14
7 142 560 Daniel Schoof Dexter 51 27:26 8:50
8 165 87 Len Constantine Chesterfield 53 32:00 10:18
.

MALE AGE GROUP: 55 - 59
Place O'All No. Name City Ag Men5 Pace
===== ===== ===== ====================== ================= == ======= =====
1 82 154 David Fisher Ann Arbor 56 22:19 7:11
2 86 597 Jim Patton Belleville 59 22:29 7:15
3 116 337 Ron Olson Ann Arbor 57 25:02 8:04
4 123 116 Mark Delbrugge Southgate 55 25:43 8:17
5 132 566 Edwin Clarke Ann Arbor 59 26:00 8:23
6 150 158 Jerry Fouchey Ann Arbor 56 28:30 9:11
7 159 445 Micheal Stevens Linden 58 30:39 9:52
8 171 463 William Thompson Harrisville 55 36:11 11:39
9 175 280 Jack Marlotte Ann Arbor 57 49:00 15:47

MALE AGE GROUP: 60 - 64
Place O'All No. Name City Ag Men5 Pace
===== ===== ===== ====================== ================= == ======= =====
1 68 97 Mark Cryderman Howell 60 21:03 6:47
2 117 984 Currell Pattie Shelby Twp 63 25:18 8:09

MALE AGE GROUP: 65 - 69
Place O'All No. Name City Ag Men5 Pace
===== ===== ===== ====================== ================= == ======= =====
1 102 982 Bruce Laidlaw Ann Arbor 65 23:34 7:36
2 115 827 Ernest Caviani 65 25:00 8:03
3 174 145 Ren Farley Ann Arbor 68 42:59 13:51

MALE AGE GROUP: 70 - 74
Place O'All No. Name City Ag Men5 Pace
===== ===== ===== ====================== ================= == ======= =====

MALE AGE GROUP: 75 - 99
Place O'All No. Name City Ag Men5 Pace
===== ===== ===== ====================== ================= == ======= =====
1 152 157 Jim Forshee Ann Arbor 80 28:54 9:19

MALE CLYDESDALE AGE GROUP
Place O'All No. Name City Ag Men5 Pace
===== ===== ===== ====================== ================= == ======= =====
1 36 451 Eric Swager Chelsea 42 18:42 6:02
2 43 945 Patrick Suto 34 19:20 6:14
3 59 400 Adam Schmidt Champaign 31 20:16 6:32
4 72 71 Bob Chunn Ypsilanti 36 21:33 6:57
5 104 401 Benjamin Schmidt Ypsilanti 25 23:46 7:40
6 111 925 Mike Steele Whitmore Lake 36 24:33 7:54
7 122 988 Toby Brzoznowski Ann Arbor 36 25:40 8:16
8 125 323 Kevin Nash Monroe 39 25:48 8:19
9 136 243 George Klinich Ann Arbor 39 26:25 8:31
10 138 838 Ian Jellis Roseville 40 26:53 8:40
11 141 570 Eric Preissner Ann Arbor 42 27:25 8:50
12 143 125 Roger Domokos Port Clinton 37 27:37 8:54
13 154 367 David Read Ypsilanti 36 29:09 9:23
14 157 379 Kevin Riegle Manchester 25 29:41 9:34
15 161 363 Peter Rathsack Britton 40 31:06 10:01
16 166 45 Keith Brothers Belleville 36 32:22 10:25
17 172 378 Jason Riegle Waterford 29 36:15 11:41



IRON TURKEY WOMEN:

No. Name City Ag S Clyde 5k 10k Iron
===== ====================== ================= == = ===== ======= ======= =======
184 Wanda Gunderson Whitmore Lake 48 F 21:21 44:15 1:05:36

555 Nancy Damm Ann Arbor 39 F 21:50 44:42 1:06:32
835 Sarah Shipley Canton 28 F 21:13 45:47 1:07:00
297 Anna Milanowski Ann Arbor 20 F 22:19 44:58 1:07:17
562 Katherine Gillman Whitmore Lake 40 F 21:35 46:05 1:07:40
491 Gina Warnke Oak Harbor, Oh 33 F 21:26 48:21 1:09:47
292 Tami McDunn Ann Arbor 22 F 22:17 47:37 1:09:54
108 Jo Darlington Ann Arbor 40 F 23:06 48:26 1:11:32
36 Suzanne Bessette Ann Arbor 29 F 23:47 50:20 1:14:07
169 Judith Gentz Grass Lake 48 F 23:49 51:02 1:14:51
944 Andrea Smith Ann Arbor 24 F 23:18 53:31 1:16:49
929 Debbie Angell Oxford 45 F 26:01 54:11 1:20:12
143 Lorenda Faist Pleasant Lake 44 F 25:32 54:59 1:20:31
399 Gabrielle Scherzer Ann Arbor 22 F 26:25 54:44 1:21:09
104 Jen Cunliffe Ann Arbor 27 F 27:04 54:05 1:21:09
538 Christine Freeman Ann Arbor 27 F 27:04 54:05 1:21:09
515 Julie Wolf Ann Arbor 21 F 26:25 54:45 1:21:10
592 Donna Krol Garden City 47 F 26:47 55:06 1:21:53
455 Katie Talik Ann Arbor 27 F 26:48 55:06 1:21:54
208 Elika Hoffmann Ann Arbor 28 F 26:56 57:34 1:24:30
147 Charlene Fell Ann Arbor 37 F 26:54 58:55 1:25:49
568 Sara Parent Ann Arbor 29 F 26:36 1:00:00 1:26:36
27 K Bedigian Novi 36 F 35:44 51:03 1:26:47
338 Kara O'Reilly Brownstown 30 F 27:29 59:36 1:27:05
239 Sara Kingsley Port Huron 29 F 26:54 1:01:20 1:28:14
546 Heidi Haite Ann Arbor 37 F 26:40 1:02:10 1:28:50
406 Katharene Schoof Dexter 53 F 28:41 1:01:18 1:29:59
49 Shelley Bruder Dexter 52 F 28:01 1:03:25 1:31:26
112 Arlene Degutis Ann Arbor 42 F 37:07 56:06 1:33:13
807 Leslie Beemer Jackson 40 F X 29:41 1:05:14 1:34:55
54 Katherine Callaghan Jackson 40 F x 30:27 1:05:11 1:35:38
567 Michelle Kramer Ann Arbor 28 F 29:32 1:10:52 1:40:24
92 Sue Corrion Chesterfield 41 F 32:01 1:14:08 1:46:09
263 Karen Levin Ann Arbor 54 F 40:40 1:24:35 2:05:15

IRON TURKEY MEN:

No. Name City Ag S Clyde 5k 10k Iron
===== ====================== ================= == = ===== ======= ======= =======
926 Ian Forsyth Ann Arbor 34 M 15:23 31:42 47:05

864 Greg Feucht Ann Arbor 28 M 15:34 31:43 47:17
854 Pat Lencioni Ann Arbor 41 M 16:54 33:04 49:58
969 Mark Wehrman Pinckney 20 M 16:38 34:17 50:55
51 Timothy Budzyn Ann Arbor 30 M 17:45 35:50 53:35
541 Edward McGovern Ypsilanti 31 M 18:03 35:52 53:55
41 Brian Brady Big Rapids 39 M 18:13 36:34 54:47
78 Brendan Cleary Clawson 15 M 18:04 36:58 55:02
453 Ben Szporluk Cleveland 42 M 18:28 37:27 55:55
975 Josha Ross Eaton Rapids 15 M 19:06 39:51 58:57
273 Douglas MacLean Ann Arbor 26 M 19:51 39:56 59:47
170 David Gerdes Ann Arbor 42 M 20:01 40:43 1:00:44
586 Barry Siff Boulder, Co 51 M 20:10 40:43 1:00:53
400 Adam Schmidt Champaign 31 M x 20:16 41:04 1:01:20
510 Nicholas Wilkinson Ann Arbor 21 M 20:38 40:53 1:01:31
964 Chris Coleman Ann Arbor 34 M 20:57 41:33 1:02:30
168 Jared Gentz Grass Lake 15 M 22:09 41:37 1:03:46
139 Eric Fahlgren Canton 49 M 20:52 43:43 1:04:35
71 Bob Chunn Ypsilanti 36 M x 21:33 43:29 1:05:02
154 David Fisher Ann Arbor 56 M 22:19 43:35 1:05:54
356 Aaron Pratt Saline 52 M 22:57 44:53 1:07:50
113 Bob Degutis Ann Arbor 42 M 19:44 48:07 1:07:51
351 Michael Pienta Ann Arbor 16 M 23:31 45:43 1:09:14
40 Paul Boyer Howell 36 M 23:31 47:11 1:10:42
156 Robert Florka Ann Arbor 49 M 24:08 47:03 1:11:11
535 David Osta Ann Arbor 29 M 19:42 52:01 1:11:43
290 Colin McCorkle Ann Arbor 19 M 24:45 47:15 1:12:00
401 Benjamin Schmidt Ypsilanti 25 M x 23:46 48:26 1:12:12
827 Ernest Caviani 65 M 25:00 48:11 1:13:11
431 Scott Smith Fremont 48 M 25:48 50:19 1:16:07
116 Mark Delbrugge Southgate 55 M 25:43 50:52 1:16:35
323 Kevin Nash Monroe 39 M x 25:48 52:33 1:18:21
125 Roger Domokos Port Clinton 37 M x 27:37 51:32 1:19:09
593 Bruce Geffen Ann Arbor 45 M 25:53 54:53 1:20:46
153 Dirk Fischbach Saline 44 M 20:37 1:01:01 1:21:38
430 Rod Smith Ann Arbor 47 M 27:21 54:18 1:21:39
158 Jerry Fouchey Ann Arbor 56 M 28:30 54:19 1:22:49
367 David Read Ypsilanti 36 M x 29:09 55:26 1:24:35
98 Michael Cuffle Jackson 29 M 29:02 57:23 1:26:25
445 Micheal Stevens Linden 58 M 30:39 58:30 1:29:09
87 Len Constantine Chesterfield 53 M 32:00 1:09:11 1:41:11

Ann Arbor, MI
Results provided by GAULT RACE MANAGEMENT